Time;durP1;ratioP1;P1;durP2;ratioP2;P2;SDS_P1;SDS_P2;PMS_P1;PMS_P2;Temp;Humidity;BMP_temperature;BMP_pressure;BME280_temperature;BME280_humidity;BME280_pressure;Samples;Min_cycle;Max_cycle;Signal;HPM_P1;HPM_P2
2021/12/16 00:09:04;;;;;;;4.07;2.42;;;;;;;8.81;88.22;102846.38;5209515;28;20040;-78
2021/12/16 00:31:21;;;;;;;4.18;3.40;;;;;;;8.90;88.26;102840.41;5205236;28;20041;-78
2021/12/16 00:34:02;;;;;;;3.78;3.47;;;;;;;8.82;88.69;102839.44;5209467;28;20029;-78
2021/12/16 00:36:39;;;;;;;2.65;2.55;;;;;;;8.73;89.03;102839.28;5178442;28;20435;-79
2021/12/16 00:39:17;;;;;;;2.50;2.33;;;;;;;8.74;88.97;102839.31;5174285;28;20360;-80
2021/12/16 00:41:52;;;;;;;11.32;5.45;;;;;;;8.76;88.88;102839.34;5194972;28;20024;-79
2021/12/16 00:46:59;;;;;;;;;;;;;;;;;;;;;
2021/12/16 00:54:56;;;;;;;4.13;3.85;;;;;;;8.77;88.60;102841.09;5191511;28;19955;-81
2021/12/16 00:57:26;;;;;;;4.40;3.03;;;;;;;8.74;88.83;102841.06;5198041;28;20027;-79
2021/12/16 01:00:00;;;;;;;4.18;3.78;;;;;;;8.80;88.94;102849.00;5186450;28;20041;-81
2021/12/16 01:34:21;;;;;;;5.63;3.85;;;;;;;9.02;87.24;102862.38;5206853;28;20033;-79
2021/12/16 01:50:39;;;;;;;4.72;3.97;;;;;;;8.86;88.20;102861.28;5209312;28;20041;-78
2021/12/16 01:56:40;;;;;;;10.15;4.65;;;;;;;8.90;87.47;102868.31;5176189;28;20139;-83
2021/12/16 01:59:16;;;;;;;2.75;2.55;;;;;;;8.85;88.32;102870.00;5138086;28;20208;-81
2021/12/16 02:01:47;;;;;;;4.68;4.03;;;;;;;8.78;88.66;102874.25;5185398;28;20083;-79
2021/12/16 02:04:27;;;;;;;3.88;3.58;;;;;;;8.80;88.19;102868.19;5189854;28;20158;-80
2021/12/16 02:07:07;;;;;;;4.03;3.45;;;;;;;8.82;88.41;102868.22;5210375;28;20432;-77
2021/12/16 02:09:45;;;;;;;3.17;2.85;;;;;;;8.72;88.78;102867.19;5207018;28;20038;-78
2021/12/16 02:12:45;;;;;;;1.90;1.80;;;;;;;8.75;88.39;102864.63;5205206;28;20025;-80
2021/12/16 02:29:27;;;;;;;3.05;2.85;;;;;;;8.77;88.86;102868.16;5197511;28;20037;-78
2021/12/16 02:37:18;;;;;;;8.82;5.00;;;;;;;8.80;88.54;102877.78;5219341;28;20021;-80
2021/12/16 02:39:50;;;;;;;3.70;3.42;;;;;;;8.76;88.89;102868.16;5208231;28;20079;-79
2021/12/16 02:42:25;;;;;;;3.63;3.35;;;;;;;8.69;88.93;102875.00;5233883;28;20029;-80
2021/12/16 02:50:18;;;;;;;4.20;3.70;;;;;;;8.75;88.27;102884.69;5204236;28;20610;-80
2021/12/16 02:52:49;;;;;;;4.73;4.43;;;;;;;8.76;88.18;102886.47;5204896;28;20033;-80
2021/12/16 02:55:21;;;;;;;4.00;3.63;;;;;;;8.83;88.03;102883.09;5186359;28;20365;-80
2021/12/16 02:58:01;;;;;;;2.80;2.63;;;;;;;8.77;88.08;102886.47;5198744;28;20036;-78
2021/12/16 03:00:41;;;;;;;3.17;2.97;;;;;;;8.74;88.94;102882.94;5213751;28;20099;-79
2021/12/16 03:03:11;;;;;;;4.55;4.25;;;;;;;8.88;87.80;102880.53;5209917;28;20139;-80
2021/12/16 03:05:42;;;;;;;8.30;4.60;;;;;;;8.86;88.00;102883.09;5189230;28;20392;-79
2021/12/16 03:08:14;;;;;;;2.88;2.67;;;;;;;8.88;87.96;102886.63;5210768;28;20547;-79
2021/12/16 03:21:48;;;;;;;7.50;5.65;;;;;;;8.97;87.08;102876.28;5206468;28;20037;-79
2021/12/16 03:27:27;;;;;;;3.47;3.05;;;;;;;9.01;87.38;102885.06;5210532;28;20403;-79
2021/12/16 03:35:03;;;;;;;7.00;5.20;;;;;;;8.87;88.02;102878.78;5215817;28;20033;-78
2021/12/16 03:37:34;;;;;;;3.33;3.13;;;;;;;8.76;88.21;102882.09;5176359;28;20421;-79
2021/12/16 03:40:12;;;;;;;5.80;5.20;;;;;;;8.81;88.12;102883.03;5202209;28;20114;-79
2021/12/16 03:42:46;;;;;;;3.20;2.95;;;;;;;8.84;88.07;102878.72;5202077;28;20064;-79
2021/12/16 03:48:36;;;;;;;6.10;4.47;;;;;;;8.80;88.15;102883.88;5222485;28;20197;-77
2021/12/16 03:51:17;;;;;;;2.95;2.75;;;;;;;8.90;87.34;102889.25;5211019;28;20049;-77
2021/12/16 03:53:51;;;;;;;2.50;2.30;;;;;;;8.85;87.88;102885.72;5224723;28;20093;-79
2021/12/16 03:56:23;;;;;;;3.25;2.88;;;;;;;8.91;87.78;102896.25;5194837;28;20541;-79
2021/12/16 03:58:54;;;;;;;4.05;3.70;;;;;;;8.94;87.72;102896.31;5207967;28;20041;-79
2021/12/16 04:01:28;;;;;;;3.10;2.85;;;;;;;8.76;87.69;102895.19;5205307;28;20025;-79
2021/12/16 04:03:58;;;;;;;3.20;2.90;;;;;;;8.74;88.28;102902.13;5216214;28;20037;-79
2021/12/16 04:06:32;;;;;;;4.07;3.72;;;;;;;8.74;88.15;102904.75;5220618;28;20117;-79
2021/12/16 04:09:06;;;;;;;3.03;2.85;;;;;;;8.81;87.81;102898.75;5193801;28;20044;-80
2021/12/16 04:11:42;;;;;;;4.43;4.13;;;;;;;8.86;87.74;102909.28;5201332;28;20029;-79
2021/12/16 04:14:14;;;;;;;2.80;2.63;;;;;;;8.88;87.61;102906.72;5200744;28;20083;-79
2021/12/16 04:16:51;;;;;;;4.13;3.63;;;;;;;8.82;87.83;102908.34;5207198;28;20056;-80
2021/12/16 04:19:27;;;;;;;2.90;2.70;;;;;;;8.80;87.76;102910.06;5174474;28;20037;-78
2021/12/16 04:22:06;;;;;;;3.92;3.60;;;;;;;8.87;87.56;102910.19;5212607;28;20451;-78
2021/12/16 04:24:38;;;;;;;1.98;1.88;;;;;;;8.76;88.16;102905.66;5199647;28;20064;-78
2021/12/16 04:27:09;;;;;;;4.28;3.90;;;;;;;8.80;88.46;102906.59;5201462;28;20025;-79
2021/12/16 04:29:39;;;;;;;3.85;3.55;;;;;;;8.79;87.85;102908.34;5201458;28;20060;-78
2021/12/16 04:32:11;;;;;;;2.95;2.75;;;;;;;8.85;87.25;102911.88;5220542;28;20430;-77
2021/12/16 04:34:43;;;;;;;3.92;3.63;;;;;;;8.86;87.73;102914.53;5197538;28;20050;-81
2021/12/16 04:37:14;;;;;;;2.88;2.67;;;;;;;8.78;87.99;102921.38;5208558;28;20025;-80
2021/12/16 04:39:46;;;;;;;4.35;4.00;;;;;;;8.85;87.78;102914.50;5183300;28;20080;-77
2021/12/16 04:42:20;;;;;;;6.53;4.25;;;;;;;8.80;87.87;102912.69;5210104;28;20086;-79
2021/12/16 04:44:50;;;;;;;3.13;2.92;;;;;;;8.77;88.40;102915.28;5194156;28;20041;-79
2021/12/16 04:47:21;;;;;;;3.53;3.08;;;;;;;8.81;87.80;102910.97;5206841;28;20039;-80
2021/12/16 04:49:52;;;;;;;4.20;2.78;;;;;;;8.81;87.82;102918.81;5190172;28;20044;-80
2021/12/16 04:52:22;;;;;;;3.10;2.90;;;;;;;8.76;88.06;102917.88;5191435;28;20067;-79
2021/12/16 04:54:53;;;;;;;6.43;5.82;;;;;;;8.82;88.04;102920.59;5184663;28;20060;-81
2021/12/16 04:57:23;;;;;;;4.47;4.10;;;;;;;8.77;87.50;102917.88;5176157;28;20438;-78
2021/12/16 04:59:54;;;;;;;4.45;3.85;;;;;;;8.82;87.08;102916.22;5210485;28;20036;-78
2021/12/16 05:02:26;;;;;;;3.38;3.13;;;;;;;8.79;87.70;102918.81;5192560;28;20671;-78
2021/12/16 05:04:57;;;;;;;4.38;3.58;;;;;;;8.82;87.46;102917.97;5185656;28;20066;-78
2021/12/16 05:07:27;;;;;;;2.67;2.47;;;;;;;8.74;87.85;102915.22;5189402;28;20487;-79
2021/12/16 05:10:10;;;;;;;1.92;1.83;;;;;;;8.80;87.57;102924.91;5185077;28;20542;-78
2021/12/16 05:12:50;;;;;;;3.08;2.80;;;;;;;8.74;87.73;102919.59;5208655;28;20583;-77
2021/12/16 05:15:29;;;;;;;5.20;3.88;;;;;;;8.63;88.06;102922.03;5194985;28;20037;-79
2021/12/16 05:18:03;;;;;;;3.25;2.58;;;;;;;8.69;87.74;102916.88;5196068;28;20037;-79
2021/12/16 05:20:42;;;;;;;2.75;2.55;;;;;;;8.79;87.13;102913.56;5188691;28;20076;-79
2021/12/16 05:28:51;;;;;;;3.58;3.28;;;;;;;8.67;87.19;102908.13;5205296;28;20038;-80
2021/12/16 05:31:24;;;;;;;2.65;2.55;;;;;;;8.55;87.67;102898.34;5208903;28;20675;-79
2021/12/16 05:33:56;;;;;;;3.80;3.33;;;;;;;8.73;86.82;102902.97;5183676;28;20233;-79
2021/12/16 05:36:27;;;;;;;5.70;2.93;;;;;;;8.79;86.76;102915.28;5216301;28;20064;-79
2021/12/16 05:38:58;;;;;;;3.67;3.38;;;;;;;8.84;86.35;102925.84;5196842;28;20284;-78
2021/12/16 05:41:29;;;;;;;2.75;2.38;;;;;;;8.88;86.73;102922.41;5215540;28;20051;-78
2021/12/16 05:44:00;;;;;;;2.92;2.72;;;;;;;8.89;85.98;102924.16;5200664;28;20132;-78
2021/12/16 05:46:32;;;;;;;2.80;2.60;;;;;;;8.86;86.26;102930.22;5217987;28;20917;-78
2021/12/16 05:49:06;;;;;;;3.50;3.03;;;;;;;8.88;85.98;102928.53;5187532;28;20052;-79
2021/12/16 05:51:42;;;;;;;4.03;3.13;;;;;;;8.89;86.01;102940.75;5188178;28;20045;-81
2021/12/16 05:54:12;;;;;;;4.57;4.07;;;;;;;8.87;85.97;102925.91;5184056;28;20039;-80
2021/12/16 05:56:44;;;;;;;3.10;2.90;;;;;;;8.92;85.85;102937.31;5184579;28;20033;-80
2021/12/16 05:59:18;;;;;;;3.97;3.55;;;;;;;8.93;85.28;102941.69;5203135;28;20037;-79
2021/12/16 06:01:50;;;;;;;4.28;3.95;;;;;;;8.86;85.57;102945.06;5202503;28;20029;-79
2021/12/16 06:04:21;;;;;;;3.60;3.30;;;;;;;8.79;84.95;102952.84;5179209;28;20399;-77
2021/12/16 06:06:51;;;;;;;2.97;2.17;;;;;;;8.82;85.35;102947.63;5216511;28;20622;-78
2021/12/16 06:09:22;;;;;;;4.28;3.97;;;;;;;8.79;85.55;102960.69;5177901;28;20083;-79
2021/12/16 06:11:54;;;;;;;2.28;2.15;;;;;;;8.82;85.63;102950.25;5176682;28;20025;-80
2021/12/16 06:26:25;;;;;;;7.20;4.28;;;;;;;8.79;85.02;102970.25;5189716;28;20044;-80
2021/12/16 06:28:56;;;;;;;5.90;4.68;;;;;;;8.82;84.41;102979.03;5193823;28;20043;-80
2021/12/16 06:31:27;;;;;;;6.40;5.78;;;;;;;8.84;84.44;102983.44;5200586;28;20391;-82
2021/12/16 06:33:58;;;;;;;3.33;3.05;;;;;;;8.82;84.26;102984.28;5203690;28;20025;-80
2021/12/16 06:36:28;;;;;;;3.83;3.30;;;;;;;8.79;84.23;102986.88;5191239;28;20080;-80
2021/12/16 06:38:59;;;;;;;2.45;2.25;;;;;;;8.77;84.00;102982.44;5214224;28;20049;-79
2021/12/16 06:41:36;;;;;;;8.15;4.60;;;;;;;8.72;84.01;102991.94;5187256;28;20647;-81
2021/12/16 06:44:50;;;;;;;2.55;2.45;;;;;;;8.58;83.78;102979.53;5206801;28;20037;-78
2021/12/16 06:47:13;;;;;;;3.47;3.28;;;;;;;8.54;84.10;102985.53;5190551;28;20037;-79
2021/12/16 06:49:46;;;;;;;3.83;3.22;;;;;;;8.56;83.91;102996.03;5219831;28;20045;-79
2021/12/16 06:52:20;;;;;;;3.70;3.17;;;;;;;8.56;84.16;102982.94;5179025;28;20276;-80
2021/12/16 06:57:36;;;;;;;4.70;4.03;;;;;;;8.48;83.48;102996.78;5210638;28;20025;-80
2021/12/16 07:00:44;;;;;;;2.58;2.40;;;;;;;8.47;83.88;103004.59;5185644;28;20038;-80
2021/12/16 07:03:21;;;;;;;5.57;3.40;;;;;;;8.48;83.65;103007.22;5197202;28;20041;-80
2021/12/16 07:05:54;;;;;;;5.82;3.42;;;;;;;8.50;83.64;103002.91;5187898;28;20061;-79
2021/12/16 07:08:25;;;;;;;4.38;4.00;;;;;;;8.47;82.96;103009.84;5184127;28;20108;-79
2021/12/16 07:10:57;;;;;;;4.22;3.78;;;;;;;8.35;83.33;103000.88;5177687;28;20045;-80
2021/12/16 07:13:36;;;;;;;6.55;4.13;;;;;;;8.41;83.48;103020.16;5220009;28;20310;-79
2021/12/16 07:16:10;;;;;;;2.90;2.70;;;;;;;8.39;83.15;103016.63;5201480;28;20056;-80
2021/12/16 07:18:41;;;;;;;2.13;2.03;;;;;;;8.32;83.39;103018.22;5193290;28;20029;-79
2021/12/16 07:21:11;;;;;;;3.10;2.83;;;;;;;8.31;83.69;103013.84;5194267;28;20060;-79
2021/12/16 07:23:42;;;;;;;3.00;2.80;;;;;;;8.24;83.81;103018.09;5225265;22;20033;-79
2021/12/16 07:26:13;;;;;;;2.92;2.72;;;;;;;8.27;83.69;103023.38;5175650;28;20829;-78
2021/12/16 07:28:43;;;;;;;2.25;2.08;;;;;;;8.31;83.27;103029.53;5179566;28;20034;-79
2021/12/16 07:31:14;;;;;;;4.10;3.13;;;;;;;8.34;83.39;103034.84;5198167;28;20596;-78
2021/12/16 07:33:45;;;;;;;1.75;1.67;;;;;;;8.38;82.76;103048.88;5179626;28;20429;-80
2021/12/16 07:36:18;;;;;;;2.13;1.77;;;;;;;8.36;83.04;103046.22;5183904;28;20057;-79
2021/12/16 07:38:49;;;;;;;2.40;2.22;;;;;;;8.41;82.74;103043.72;5184310;28;20046;-79
2021/12/16 07:41:22;;;;;;;2.72;2.53;;;;;;;8.29;82.81;103053.06;5164268;28;20033;-80
2021/12/16 07:44:09;;;;;;;5.18;4.70;;;;;;;8.33;83.18;103061.84;5158312;28;20033;-80
2021/12/16 07:46:50;;;;;;;2.47;2.30;;;;;;;8.35;82.73;103075.84;5165747;28;20095;-79
2021/12/16 07:49:34;;;;;;;6.45;3.40;;;;;;;8.35;82.64;103073.25;5185109;28;20452;-78
2021/12/16 07:52:06;;;;;;;9.30;4.50;;;;;;;8.34;82.67;103075.00;5169539;28;20417;-79
2021/12/16 07:54:36;;;;;;;3.15;2.88;;;;;;;8.33;82.50;103082.78;5184538;28;20406;-80
2021/12/16 07:57:07;;;;;;;4.93;3.33;;;;;;;8.34;82.20;103084.56;5187853;28;20112;-78
2021/12/16 07:59:38;;;;;;;6.95;3.38;;;;;;;8.30;82.23;103085.34;5201091;28;20215;-78
2021/12/16 08:02:11;;;;;;;3.33;2.88;;;;;;;8.32;82.16;103083.63;5188061;28;20033;-78
2021/12/16 08:04:44;;;;;;;4.47;2.63;;;;;;;8.28;82.30;103087.03;5190211;28;20564;-78
2021/12/16 08:07:18;;;;;;;;;;;;;;;8.28;82.31;103098.38;5180783;28;20501;-79
2021/12/16 08:09:49;;;;;;;3.00;2.75;;;;;;;8.27;82.42;103091.38;5176073;28;19924;-80
2021/12/16 08:12:20;;;;;;;2.05;1.95;;;;;;;8.26;82.44;103094.88;5164692;28;20042;-81
2021/12/16 08:14:51;;;;;;;3.65;3.35;;;;;;;8.29;82.37;103094.06;5158980;28;20087;-81
2021/12/16 08:17:22;;;;;;;3.03;1.88;;;;;;;8.22;82.51;103097.38;5180131;28;20034;-78
2021/12/16 08:19:52;;;;;;;10.35;6.18;;;;;;;8.27;82.36;103098.34;5171347;28;20417;-78
2021/12/16 08:22:23;;;;;;;5.38;4.78;;;;;;;8.29;82.25;103101.91;5193332;28;20033;-78
2021/12/16 08:24:53;;;;;;;4.78;4.35;;;;;;;8.29;82.41;103094.06;5185783;28;20045;-79
2021/12/16 08:27:25;;;;;;;3.08;2.78;;;;;;;8.27;82.54;103103.59;5179749;28;20033;-80
2021/12/16 08:29:55;;;;;;;4.85;3.95;;;;;;;8.26;82.44;103117.50;5182849;28;20067;-78
2021/12/16 08:32:26;;;;;;;2.88;2.63;;;;;;;8.28;82.48;103110.59;5190880;28;20110;-79
2021/12/16 08:34:56;;;;;;;1.98;1.88;;;;;;;8.29;82.55;103121.06;5191149;28;20056;-79
2021/12/16 08:37:27;;;;;;;5.47;3.40;;;;;;;8.31;82.56;103128.94;5180185;28;20034;-79
2021/12/16 08:39:58;;;;;;;4.43;3.95;;;;;;;8.28;82.33;103119.31;5178209;28;20045;-78
2021/12/16 08:42:28;;;;;;;7.30;3.85;;;;;;;8.29;82.77;103122.81;5182035;28;20453;-79
2021/12/16 08:44:59;;;;;;;4.55;3.42;;;;;;;8.33;82.33;103116.78;5160599;28;20113;-81
2021/12/16 08:47:31;;;;;;;3.08;2.88;;;;;;;8.31;82.33;103123.72;5185137;28;20635;-78
2021/12/16 08:50:02;;;;;;;3.17;2.45;;;;;;;8.26;82.69;103120.13;5170719;28;20138;-81
2021/12/16 08:52:33;;;;;;;4.22;3.75;;;;;;;8.19;82.94;103117.38;5195287;28;20386;-79
2021/12/16 08:55:05;;;;;;;2.72;2.53;;;;;;;8.24;82.92;103133.19;5185018;28;20040;-78
2021/12/16 08:57:35;;;;;;;20.08;3.85;;;;;;;8.28;82.95;103139.38;5162355;28;20384;-80
2021/12/16 09:00:12;;;;;;;4.65;4.25;;;;;;;8.30;82.49;103137.66;5169011;28;20384;-79
2021/12/16 09:02:43;;;;;;;3.08;2.88;;;;;;;8.30;82.53;103141.16;5204221;28;20106;-79
2021/12/16 09:05:14;;;;;;;3.95;3.53;;;;;;;8.30;82.65;103140.28;5168424;28;20559;-78
2021/12/16 09:07:48;;;;;;;3.22;2.60;;;;;;;8.22;83.03;103136.63;5153776;28;20076;-78
2021/12/16 09:10:23;;;;;;;3.50;3.30;;;;;;;8.18;83.27;103144.38;5185849;28;20037;-79
2021/12/16 09:13:03;;;;;;;3.28;2.67;;;;;;;8.26;83.38;103136.72;5189216;28;20029;-78
2021/12/16 09:15:38;;;;;;;2.97;2.45;;;;;;;8.25;83.55;103134.94;5172945;28;20038;-80
2021/12/16 09:18:10;;;;;;;1.80;1.70;;;;;;;8.22;83.62;103149.69;5180565;28;20533;-80
2021/12/16 09:20:41;;;;;;;7.15;5.53;;;;;;;8.28;84.29;103141.97;5152323;28;20549;-80
2021/12/16 09:23:13;;;;;;;2.95;2.75;;;;;;;8.23;84.43;103143.59;5167265;28;20022;-80
2021/12/16 09:25:46;;;;;;;2.33;2.13;;;;;;;8.29;84.00;103148.97;5170721;28;20281;-80
2021/12/16 09:28:21;;;;;;;2.72;2.53;;;;;;;8.25;85.13;103141.91;5158586;28;20530;-78
2021/12/16 09:30:52;;;;;;;4.80;2.55;;;;;;;8.24;85.08;103153.22;5186212;28;20050;-79
2021/12/16 09:33:25;;;;;;;1.92;1.83;;;;;;;8.24;84.96;103159.34;5184342;23;20103;-79
2021/12/16 09:35:59;;;;;;;4.82;4.35;;;;;;;8.27;84.80;103158.50;5172841;28;20041;-79
2021/12/16 09:38:30;;;;;;;2.58;2.38;;;;;;;8.36;84.05;103163.94;5190211;28;20104;-78
2021/12/16 09:41:03;;;;;;;6.22;2.33;;;;;;;8.42;84.61;103164.06;5196653;28;20133;-79
2021/12/16 09:43:39;;;;;;;3.92;3.60;;;;;;;8.48;84.23;103169.47;5193628;28;20033;-79
2021/12/16 09:46:12;;;;;;;5.78;5.30;;;;;;;8.38;85.52;103177.97;5172569;28;20034;-79
2021/12/16 09:48:43;;;;;;;2.40;2.28;;;;;;;8.46;84.77;103181.63;5185293;28;20038;-78
2021/12/16 09:51:21;;;;;;;4.50;4.10;;;;;;;8.54;84.67;103180.94;5192161;28;20033;-79
2021/12/16 09:54:00;;;;;;;3.05;2.83;;;;;;;8.47;86.94;103172.06;5156320;28;20021;-80
2021/12/16 09:56:35;;;;;;;2.17;2.08;;;;;;;8.50;86.11;103182.59;5161104;28;20108;-80
2021/12/16 09:59:13;;;;;;;4.50;4.07;;;;;;;8.53;86.63;103181.78;5154992;28;20053;-79
2021/12/16 10:01:47;;;;;;;4.05;2.40;;;;;;;8.50;87.52;103182.59;5177756;28;20030;-79
2021/12/16 10:04:27;;;;;;;5.20;4.75;;;;;;;8.58;87.05;103185.34;5180745;28;20565;-80
2021/12/16 10:07:20;;;;;;;2.85;2.65;;;;;;;8.76;85.47;103185.75;5154451;28;20038;-80
2021/12/16 10:09:54;;;;;;;0.95;0.95;;;;;;;8.65;86.65;103187.25;5172373;28;20044;-78
2021/12/16 10:12:29;;;;;;;8.70;5.15;;;;;;;8.75;85.95;103189.19;5168759;28;20033;-79
2021/12/16 10:15:06;;;;;;;5.40;4.00;;;;;;;8.75;86.61;103183.97;5201866;28;20104;-78
2021/12/16 10:17:42;;;;;;;2.50;2.35;;;;;;;8.66;87.87;103166.38;5200554;28;20097;-80
2021/12/16 10:20:26;;;;;;;7.55;4.65;;;;;;;8.77;86.54;103176.13;5176119;28;20046;-81
2021/12/16 10:23:11;;;;;;;13.25;4.68;;;;;;;8.99;87.11;103174.81;5209783;28;20133;-80
2021/12/16 10:25:45;;;;;;;3.97;3.57;;;;;;;8.82;87.96;103174.50;5155608;28;20057;-80
2021/12/16 10:28:24;;;;;;;3.72;3.38;;;;;;;8.79;88.37;103185.81;5160308;28;20300;-80
2021/12/16 10:31:02;;;;;;;3.60;3.35;;;;;;;8.89;88.33;103180.72;5172044;28;20096;-80
2021/12/16 10:33:40;;;;;;;3.63;3.33;;;;;;;8.87;88.15;103172.84;5203872;28;20040;-79
2021/12/16 10:36:22;;;;;;;5.07;4.00;;;;;;;8.91;87.82;103173.78;5164110;28;20033;-80
2021/12/16 10:39:07;;;;;;;2.70;2.50;;;;;;;8.91;88.54;103163.31;5181454;28;20460;-80
2021/12/16 10:41:41;;;;;;;7.22;4.13;;;;;;;9.01;88.00;103170.50;5149839;28;20025;-81
2021/12/16 10:44:20;;;;;;;5.53;4.60;;;;;;;8.97;88.32;103163.44;5193759;28;20116;-79
2021/12/16 10:46:59;;;;;;;4.20;3.80;;;;;;;8.98;88.83;103173.06;5205500;28;20088;-81
2021/12/16 10:49:51;;;;;;;3.85;3.55;;;;;;;8.98;88.33;103180.91;5174938;28;20045;-80
2021/12/16 10:52:31;;;;;;;4.20;3.85;;;;;;;9.00;89.01;103168.72;5154637;28;20072;-80
2021/12/16 10:55:10;;;;;;;3.55;3.25;;;;;;;9.07;88.41;103164.50;5190309;28;20121;-80
2021/12/16 10:57:40;;;;;;;4.40;3.22;;;;;;;9.01;88.97;103173.13;5173034;28;20183;-79
2021/12/16 11:00:21;;;;;;;4.78;4.35;;;;;;;9.10;88.54;103173.31;5152829;28;20173;-81
2021/12/16 11:02:54;;;;;;;7.22;4.25;;;;;;;9.09;88.75;103173.28;5193102;28;20025;-81
2021/12/16 11:05:27;;;;;;;5.80;3.95;;;;;;;9.27;88.10;103170.09;5191770;28;20045;-81
2021/12/16 11:08:11;;;;;;;10.90;3.60;;;;;;;9.20;88.04;103176.09;5171519;28;20432;-82
2021/12/16 11:10:46;;;;;;;4.38;4.07;;;;;;;9.26;88.09;103177.06;5145634;28;20640;-81
2021/12/16 11:13:19;;;;;;;7.72;5.70;;;;;;;9.28;87.88;103174.50;5208454;28;20026;-81
2021/12/16 11:15:53;;;;;;;5.40;3.87;;;;;;;9.27;88.04;103176.22;5186079;28;20037;-82
2021/12/16 11:18:34;;;;;;;;;;;;;;;9.35;87.55;103173.75;5188909;28;20034;-81
2021/12/16 11:21:09;;;;;;;7.47;3.78;;;;;;;9.36;87.69;103180.75;5189614;28;19913;-79
2021/12/16 11:23:42;;;;;;;2.22;2.13;;;;;;;9.45;87.85;103183.53;5173926;28;20032;-80
2021/12/16 11:26:18;;;;;;;6.10;5.50;;;;;;;9.43;87.68;103185.25;5175372;28;20034;-80
2021/12/16 11:28:52;;;;;;;4.75;3.83;;;;;;;9.50;87.32;103190.56;5184369;28;20673;-81
2021/12/16 11:31:30;;;;;;;3.20;3.00;;;;;;;9.50;87.66;103193.19;5192928;28;20120;-80
2021/12/16 11:34:09;;;;;;;3.85;3.55;;;;;;;9.48;87.93;103192.28;5173107;28;20045;-81
2021/12/16 11:36:46;;;;;;;4.47;4.07;;;;;;;9.52;87.52;103184.50;5167191;28;20361;-81
2021/12/16 11:39:20;;;;;;;3.67;3.38;;;;;;;9.73;87.52;103185.72;5173098;28;20033;-81
2021/12/16 11:41:59;;;;;;;9.77;4.05;;;;;;;9.69;86.55;103179.53;5186199;28;20037;-81
2021/12/16 11:44:35;;;;;;;4.65;3.38;;;;;;;9.72;86.95;103182.19;5196472;28;20030;-78
2021/12/16 11:47:17;;;;;;;3.58;3.28;;;;;;;9.82;86.02;103177.09;5199212;28;20034;-81
2021/12/16 11:49:57;;;;;;;3.85;3.33;;;;;;;9.80;86.66;103181.44;5191739;28;20033;-81
2021/12/16 11:52:32;;;;;;;4.60;4.15;;;;;;;9.75;86.95;103186.63;5197496;28;20026;-81
2021/12/16 11:55:11;;;;;;;4.70;4.25;;;;;;;9.82;86.76;103185.88;5183244;28;20034;-80
2021/12/16 11:57:48;;;;;;;4.10;3.72;;;;;;;9.96;85.82;103185.19;5192037;28;20018;-78
2021/12/16 12:00:23;;;;;;;4.28;3.88;;;;;;;9.97;85.27;103187.81;5191483;28;20056;-79
2021/12/16 12:02:59;;;;;;;3.58;2.45;;;;;;;9.99;84.98;103183.50;5194675;28;20064;-79
2021/12/16 12:05:44;;;;;;;5.70;3.97;;;;;;;9.91;86.04;103178.16;5189474;28;20572;-80
2021/12/16 12:08:23;;;;;;;5.38;4.40;;;;;;;9.89;85.30;103181.59;5209542;28;20063;-78
2021/12/16 12:11:00;;;;;;;3.00;2.80;;;;;;;9.92;85.99;103182.50;5191440;28;20061;-80
2021/12/16 12:13:38;;;;;;;15.60;3.63;;;;;;;9.86;86.04;103173.69;5176153;28;20033;-79
2021/12/16 12:16:15;;;;;;;3.47;3.28;;;;;;;9.92;86.03;103179.00;5174543;28;20033;-81
2021/12/16 12:18:52;;;;;;;3.50;3.20;;;;;;;10.03;84.77;103187.94;5181293;28;20526;-81
2021/12/16 12:21:29;;;;;;;4.88;4.47;;;;;;;10.02;85.72;103185.28;5199079;28;20201;-80
2021/12/16 12:24:20;;;;;;;3.70;3.45;;;;;;;9.92;86.23;103176.41;5158798;28;26747;-80
2021/12/16 12:26:59;;;;;;;8.25;4.00;;;;;;;9.95;86.36;103167.69;5174925;28;20093;-79
2021/12/16 12:30:05;;;;;;;4.25;3.85;;;;;;;10.08;85.92;103181.00;5174038;28;20045;-79
2021/12/16 12:32:40;;;;;;;4.80;3.83;;;;;;;10.01;85.83;103171.28;5145067;28;20046;-80
2021/12/16 12:35:14;;;;;;;5.82;5.32;;;;;;;9.99;86.09;103170.38;5174832;28;20025;-80
2021/12/16 12:37:51;;;;;;;5.47;5.07;;;;;;;10.10;85.79;103160.03;5173139;28;20044;-80
2021/12/16 12:40:28;;;;;;;4.18;3.88;;;;;;;10.02;86.12;103159.03;5167462;28;20045;-78
2021/12/16 12:42:59;;;;;;;3.92;3.63;;;;;;;10.00;85.84;103159.03;5190372;28;20512;-79
2021/12/16 12:45:35;;;;;;;4.53;3.58;;;;;;;10.02;85.57;103156.41;5194219;28;20038;-79
2021/12/16 12:48:13;;;;;;;4.10;3.83;;;;;;;10.06;86.33;103156.47;5191708;28;20099;-81
2021/12/16 12:50:48;;;;;;;3.95;3.65;;;;;;;10.05;85.88;103153.84;5190599;28;20065;-81
2021/12/16 12:53:24;;;;;;;4.15;3.75;;;;;;;10.13;85.81;103149.59;5194614;28;20040;-79
2021/12/16 12:56:11;;;;;;;3.92;3.60;;;;;;;10.08;85.95;103148.66;5179788;28;20109;-79
2021/12/16 12:59:10;;;;;;;;;;;;;;;;;;;;;
2021/12/16 13:01:50;;;;;;;3.65;3.33;;;;;;;10.23;85.10;103163.72;5188271;28;20040;-80
2021/12/16 13:04:25;;;;;;;5.30;3.60;;;;;;;10.15;85.45;103170.59;5196980;28;20037;-79
2021/12/16 13:07:06;;;;;;;3.30;3.08;;;;;;;10.22;85.63;103175.97;5176172;28;20032;-80
2021/12/16 13:09:53;;;;;;;3.17;2.75;;;;;;;10.26;85.28;103173.34;5195909;28;20045;-79
2021/12/16 13:12:41;;;;;;;5.90;5.00;;;;;;;10.20;85.86;103175.06;5193286;28;20057;-78
2021/12/16 13:15:36;;;;;;;3.85;3.47;;;;;;;10.21;86.10;103173.28;5202240;28;20038;-80
2021/12/16 13:24:15;;;;;;;4.63;4.20;;;;;;;10.24;85.59;103175.97;5171440;28;20037;-81
2021/12/16 13:27:24;;;;;;;5.13;2.95;;;;;;;10.28;85.59;103172.53;5186694;28;20126;-80
2021/12/16 13:33:18;;;;;;;4.20;3.80;;;;;;;10.36;85.89;103170.91;5222580;28;20627;-81
2021/12/16 13:36:13;;;;;;;7.45;6.35;;;;;;;10.32;85.73;103166.47;5178937;28;20045;-79
2021/12/16 13:38:49;;;;;;;4.57;4.15;;;;;;;10.43;85.14;103171.00;5183998;28;20113;-80
2021/12/16 13:41:26;;;;;;;4.82;4.35;;;;;;;10.34;84.94;103169.09;5156340;28;20014;-80
2021/12/16 13:44:11;;;;;;;6.20;4.70;;;;;;;10.42;85.06;103169.25;5190078;28;20052;-79
2021/12/16 13:47:06;;;;;;;4.70;4.20;;;;;;;10.39;85.47;103164.84;5198697;28;20030;-78
2021/12/16 14:05:16;;;;;;;;;;;;;;;10.42;85.04;103182.38;5188901;28;20033;-80
2021/12/16 14:07:58;;;;;;;3.15;2.95;;;;;;;10.48;85.52;103185.06;5183220;28;19944;-80
2021/12/16 14:10:50;;;;;;;4.30;3.92;;;;;;;10.50;85.73;103194.72;5201559;28;20041;-80
2021/12/16 14:17:12;;;;;;;4.82;3.97;;;;;;;10.50;84.67;103183.34;5176303;28;20033;-80
2021/12/16 14:31:47;;;;;;;6.40;3.45;;;;;;;10.49;85.29;103192.06;5187887;28;20101;-80
2021/12/16 14:37:19;;;;;;;4.43;4.13;;;;;;;10.62;85.02;103204.47;5194082;28;20033;-80
2021/12/16 14:43:14;;;;;;;9.00;5.82;;;;;;;10.50;84.88;103199.09;5199647;28;20664;-79
2021/12/16 14:45:57;;;;;;;4.15;3.75;;;;;;;10.44;84.85;103202.50;5178965;28;20048;-80
2021/12/16 14:48:32;;;;;;;7.45;6.15;;;;;;;10.57;84.37;103200.06;5189139;28;20025;-80
2021/12/16 14:51:10;;;;;;;3.67;3.42;;;;;;;10.46;84.59;103207.78;5182729;28;20048;-80
2021/12/16 14:53:47;;;;;;;3.22;2.92;;;;;;;10.47;84.75;103202.56;5194478;28;20128;-80
2021/12/16 14:56:28;;;;;;;3.40;2.70;;;;;;;10.48;84.55;103211.31;5189647;28;20049;-80
2021/12/16 14:59:11;;;;;;;7.68;4.30;;;;;;;10.47;84.62;103194.69;5163399;28;20058;-80
2021/12/16 15:01:49;;;;;;;3.95;3.65;;;;;;;10.53;84.85;103199.16;5190722;28;20025;-79
2021/12/16 15:04:25;;;;;;;3.33;3.13;;;;;;;10.54;84.54;103196.53;5193125;28;20446;-79
2021/12/16 15:07:07;;;;;;;4.55;4.15;;;;;;;10.49;84.80;103202.56;5178232;28;20033;-79
2021/12/16 15:09:41;;;;;;;6.32;4.35;;;;;;;10.38;84.48;103203.31;5184795;28;20096;-79
2021/12/16 15:12:41;;;;;;;9.75;3.67;;;;;;;10.41;84.56;103204.22;5190972;28;20492;-80
2021/12/16 15:15:32;;;;;;;5.80;5.30;;;;;;;10.44;85.24;103204.28;5177048;28;20060;-80
2021/12/16 15:42:43;;;;;;;8.23;4.30;;;;;;;10.46;84.46;103213.94;5200965;28;20084;-80
2021/12/16 15:43:53;;;;;;;4.55;4.15;;;;;;;10.43;84.06;103202.50;5167328;28;20057;-80
2021/12/16 15:46:28;;;;;;;9.30;4.22;;;;;;;10.41;84.46;103202.50;5206194;28;20088;-79
2021/12/16 15:49:12;;;;;;;3.63;3.25;;;;;;;10.39;84.45;103205.06;5181727;28;20041;-80
2021/12/16 15:51:53;;;;;;;;;;;;;;;;;;;;;
2021/12/16 15:54:29;;;;;;;4.28;3.97;;;;;;;10.28;84.69;103214.53;5197495;28;20089;-79
2021/12/16 15:57:03;;;;;;;12.32;5.93;;;;;;;10.34;84.43;103211.09;5211420;28;20552;-81
2021/12/16 15:59:40;;;;;;;4.53;4.20;;;;;;;10.35;84.46;103213.75;5184568;28;20060;-79